createdAt,value
2016-05-29T00:00:45.826Z,68.57
2016-05-29T00:01:47.407Z,68.37
2016-05-29T00:02:45.753Z,68.28
2016-05-29T00:03:42.690Z,68.18
2016-05-29T00:04:42.631Z,68.18
2016-05-29T00:05:42.431Z,68.66
2016-05-29T00:06:45.559Z,68.15
2016-05-29T00:07:45.498Z,68.24
2016-05-29T00:08:42.454Z,68.15
2016-05-29T00:09:42.410Z,68.44
2016-05-29T00:10:42.365Z,68.44
2016-05-29T00:11:42.306Z,68.34
2016-05-29T00:12:42.292Z,68.34
2016-05-29T00:13:45.234Z,68.53
2016-05-29T00:14:42.236Z,68.15
2016-05-29T00:15:42.128Z,68.53
2016-05-29T00:16:42.085Z,68.34
2016-05-29T00:17:42.259Z,68.34
2016-05-29T00:18:42.012Z,68.34
2016-05-29T00:19:44.969Z,68.53
2016-05-29T00:20:41.924Z,68.53
2016-05-29T00:21:42.067Z,68.05
2016-05-29T00:22:41.805Z,68.53
2016-05-29T00:23:41.775Z,68.53
2016-05-29T00:24:41.716Z,68.24
2016-05-29T00:25:44.688Z,68.44
2016-05-29T00:26:41.643Z,68.05
2016-05-29T00:27:41.583Z,68.15
2016-05-29T00:28:41.538Z,68.15
2016-05-29T00:29:41.495Z,68.24
2016-05-29T00:30:41.654Z,67.96
2016-05-29T00:31:44.235Z,68.44
2016-05-29T00:32:41.362Z,67.96
2016-05-29T00:33:44.334Z,68.34
2016-05-29T00:34:41.274Z,68.05
2016-05-29T00:35:41.433Z,68.24
2016-05-29T00:36:41.185Z,68.05
2016-05-29T00:37:41.142Z,68.05
2016-05-29T00:38:41.081Z,67.76
2016-05-29T00:39:41.115Z,67.96
2016-05-29T00:40:40.993Z,68.05
2016-05-29T00:41:40.949Z,67.67
2016-05-29T00:42:46.764Z,67.29
2016-05-29T00:43:43.704Z,67.38
2016-05-29T00:44:40.817Z,67.57
2016-05-29T00:45:43.756Z,67.29
2016-05-29T00:46:43.728Z,67.38
2016-05-29T00:47:40.669Z,66.9
2016-05-29T00:48:43.624Z,67.29
2016-05-29T00:49:40.580Z,66.71
2016-05-29T00:50:40.536Z,66.8
2016-05-29T00:51:40.491Z,66.8
2016-05-29T00:52:40.479Z,66.23
2016-05-29T00:53:43.419Z,66.42
2016-05-29T00:54:40.578Z,65.94
2016-05-29T00:55:46.330Z,66.23
2016-05-29T00:56:43.255Z,65.75
2016-05-29T00:57:40.070Z,65.65
2016-05-29T00:58:40.183Z,65.36
2016-05-29T00:59:43.122Z,65.84
2016-05-29T01:00:40.093Z,65.08
2016-05-29T01:01:40.035Z,65.08
2016-05-29T01:02:39.990Z,65.08
2016-05-29T01:03:39.946Z,64.98
2016-05-29T01:04:42.917Z,65.36
2016-05-29T01:05:40.295Z,64.89
2016-05-29T01:06:42.673Z,64.89
2016-05-29T01:07:39.754Z,64.69
2016-05-29T01:08:39.725Z,64.89
2016-05-29T01:09:39.681Z,64.89
2016-05-29T01:10:39.636Z,64.89
2016-05-29T01:11:39.592Z,64.79
2016-05-29T01:12:42.532Z,64.59
2016-05-29T01:13:39.503Z,64.69
2016-05-29T01:14:42.647Z,64.5
2016-05-29T01:15:39.400Z,64.59
2016-05-29T01:16:39.356Z,64.5
2016-05-29T01:17:39.592Z,64.5
2016-05-29T01:18:39.252Z,64.79
2016-05-29T01:19:39.208Z,64.59
2016-05-29T01:20:42.053Z,64.31
2016-05-29T01:21:42.150Z,64.59
2016-05-29T01:22:39.481Z,64.59
2016-05-29T01:23:39.046Z,64.5
2016-05-29T01:24:39.002Z,64.5
2016-05-29T01:25:38.927Z,64.31
2016-05-29T01:26:38.914Z,64.5
2016-05-29T01:27:38.697Z,64.89
2016-05-29T01:28:38.810Z,64.5
2016-05-29T01:29:38.750Z,64.69
2016-05-29T01:30:38.722Z,65.08
2016-05-29T01:31:38.662Z,65.14
2016-05-29T01:32:38.618Z,64.95
2016-05-29T01:33:38.574Z,65.14
2016-05-29T01:34:41.529Z,65.05
2016-05-29T01:35:38.563Z,65.14
2016-05-29T01:36:38.285Z,65.05
2016-05-29T01:37:38.396Z,65.05
2016-05-29T01:38:41.352Z,65.23
2016-05-29T01:39:38.512Z,65.05
2016-05-29T01:40:38.264Z,65.05
2016-05-29T01:41:41.235Z,65.05
2016-05-29T01:42:38.160Z,65.05
2016-05-29T01:43:38.131Z,65.05
2016-05-29T01:44:41.072Z,65.14
2016-05-29T01:45:41.028Z,65.23
2016-05-29T01:46:37.984Z,65.33
2016-05-29T01:47:37.955Z,65.43
2016-05-29T01:48:37.895Z,65.81
2016-05-29T01:49:37.835Z,65.72
2016-05-29T01:50:37.853Z,65.81
2016-05-29T01:51:40.778Z,65.62
2016-05-29T01:52:37.546Z,65.91
2016-05-29T01:53:37.924Z,65.81
2016-05-29T01:54:37.614Z,65.62
2016-05-29T01:55:37.569Z,65.05
2016-05-29T01:56:37.369Z,65.05
2016-05-29T01:57:37.482Z,64.76
2016-05-29T01:58:40.437Z,65.05
2016-05-29T01:59:40.597Z,65.14
2016-05-29T02:00:40.349Z,65.05
2016-05-29T02:01:37.321Z,65.05
2016-05-29T02:02:40.245Z,64.95
2016-05-29T02:03:37.201Z,65.33
2016-05-29T02:04:48.985Z,65.14
2016-05-29T02:05:40.082Z,65.14
2016-05-29T02:06:37.069Z,65.14
2016-05-29T02:07:46.023Z,64.95
2016-05-29T02:08:36.980Z,64.76
2016-05-29T02:09:39.936Z,64.95
2016-05-29T02:10:37.142Z,65.43
2016-05-29T02:11:40.034Z,65.52
2016-05-29T02:12:36.835Z,65.52
2016-05-29T02:13:36.759Z,65.72
2016-05-29T02:14:36.699Z,65.52
2016-05-29T02:15:36.655Z,66.1
2016-05-29T02:16:36.611Z,65.91
2016-05-29T02:17:36.551Z,65.91
2016-05-29T02:18:36.523Z,66
2016-05-29T02:19:36.306Z,66.19
2016-05-29T02:20:36.262Z,66.19
2016-05-29T02:21:39.405Z,66.39
2016-05-29T02:22:39.345Z,66.49
2016-05-29T02:23:36.364Z,66.39
2016-05-29T02:24:36.257Z,66.29
2016-05-29T02:25:36.197Z,66.1
2016-05-29T02:26:39.138Z,66.19
2016-05-29T02:27:36.156Z,66.19
2016-05-29T02:28:36.049Z,66.49
2016-05-29T02:29:36.114Z,66.77
2016-05-29T02:30:35.961Z,66.49
2016-05-29T02:31:35.916Z,66.77
2016-05-29T02:32:35.919Z,67.16
2016-05-29T02:33:35.844Z,67.35
2016-05-29T02:34:35.785Z,67.44
2016-05-29T02:35:35.740Z,67.73
2016-05-29T02:36:38.696Z,68.02
2016-05-29T02:37:35.651Z,67.73
2016-05-29T02:38:38.467Z,67.69
2016-05-29T02:39:35.563Z,67.79
2016-05-29T02:40:35.534Z,68.21
2016-05-29T02:41:35.476Z,68.27
2016-05-29T02:42:35.431Z,68.56
2016-05-29T02:43:35.356Z,68.46
2016-05-29T02:44:35.326Z,68.46
2016-05-29T02:45:35.298Z,68.37
2016-05-29T02:46:35.223Z,68.5
2016-05-29T02:47:35.178Z,68.5
2016-05-29T02:48:35.151Z,68.69
2016-05-29T02:49:34.934Z,68.69
2016-05-29T02:50:38.062Z,68.69
2016-05-29T02:51:40.986Z,68.59
2016-05-29T02:52:34.957Z,68.98
2016-05-29T02:53:34.898Z,68.59
2016-05-29T02:54:34.853Z,68.79
2016-05-29T02:55:34.809Z,68.5
2016-05-29T02:56:37.765Z,68.59
2016-05-29T02:57:34.722Z,68.79
2016-05-29T02:58:34.521Z,68.5
2016-05-29T02:59:37.476Z,68.4
2016-05-29T03:00:37.792Z,68.4
2016-05-29T03:01:34.529Z,68.21
2016-05-29T03:02:34.313Z,68.12
2016-05-29T03:03:37.455Z,68.12
2016-05-29T03:04:34.240Z,68.21
2016-05-29T03:05:34.633Z,68.02
2016-05-29T03:06:34.292Z,68.02
2016-05-29T03:07:34.248Z,67.83
2016-05-29T03:08:34.219Z,68.02
2016-05-29T03:09:34.160Z,67.83
2016-05-29T03:10:34.115Z,67.25
2016-05-29T03:11:34.087Z,67.35
2016-05-29T03:12:34.043Z,67.54
2016-05-29T03:13:33.998Z,67.35
2016-05-29T03:14:33.782Z,66.77
2016-05-29T03:15:36.910Z,66.58
2016-05-29T03:16:33.866Z,66.58
2016-05-29T03:17:33.634Z,66.67
2016-05-29T03:18:33.745Z,66.86
2016-05-29T03:19:33.702Z,66.49
2016-05-29T03:20:33.720Z,66
2016-05-29T03:21:33.614Z,66
2016-05-29T03:22:33.569Z,66.39
2016-05-29T03:23:33.526Z,66
2016-05-29T03:24:36.497Z,66.19
2016-05-29T03:25:33.639Z,66
2016-05-29T03:26:33.393Z,65.72
2016-05-29T03:27:33.333Z,65.52
2016-05-29T03:28:33.289Z,65.33
2016-05-29T03:29:33.244Z,66
2016-05-29T03:30:33.200Z,65.14
2016-05-29T03:31:33.000Z,64.95
2016-05-29T03:32:33.112Z,64.76
2016-05-29T03:33:36.083Z,65.14
2016-05-29T03:34:33.008Z,65.05
2016-05-29T03:35:35.979Z,65.05
2016-05-29T03:36:33.123Z,65.14
2016-05-29T03:37:33.079Z,64.85
2016-05-29T03:38:32.675Z,64.85
2016-05-29T03:39:41.818Z,64.76
2016-05-29T03:40:32.743Z,64.95
2016-05-29T03:41:32.683Z,64.56
2016-05-29T03:42:32.482Z,64.76
2016-05-29T03:43:32.595Z,64.56
2016-05-29T03:44:32.551Z,64.66
2016-05-29T03:45:32.522Z,64.95
2016-05-29T03:46:32.462Z,64.47
2016-05-29T03:47:32.418Z,64.28
2016-05-29T03:48:32.373Z,64.47
2016-05-29T03:49:32.329Z,64.66
2016-05-29T03:50:35.692Z,64.56
2016-05-29T03:51:35.257Z,64.56
2016-05-29T03:52:32.181Z,64.76
2016-05-29T03:53:32.153Z,64.47
2016-05-29T03:54:31.953Z,64.56
2016-05-29T03:55:32.049Z,64.37
2016-05-29T03:56:32.020Z,64.18
2016-05-29T03:57:34.961Z,64.18
2016-05-29T03:58:34.932Z,64.47
2016-05-29T03:59:38.106Z,64.18
2016-05-29T04:00:31.827Z,64.18
2016-05-29T04:01:31.784Z,64.09
2016-05-29T04:02:31.724Z,63.79
2016-05-29T04:03:31.538Z,63.89
2016-05-29T04:04:32.042Z,63.99
2016-05-29T04:05:31.873Z,63.79
2016-05-29T04:06:31.547Z,63.99
2016-05-29T04:07:31.487Z,63.89
2016-05-29T04:08:31.444Z,63.89
2016-05-29T04:09:31.399Z,63.79
2016-05-29T04:10:34.370Z,64.09
2016-05-29T04:11:34.326Z,63.99
2016-05-29T04:12:31.282Z,64.09
2016-05-29T04:13:31.223Z,63.89
2016-05-29T04:14:31.178Z,63.99
2016-05-29T04:15:31.134Z,63.89
2016-05-29T04:16:34.090Z,63.99
2016-05-29T04:17:31.045Z,63.99
2016-05-29T04:18:34.361Z,63.89
2016-05-29T04:19:30.942Z,63.99
2016-05-29T04:20:30.913Z,64.09
2016-05-29T04:21:30.915Z,63.89
2016-05-29T04:22:30.793Z,63.6
2016-05-29T04:23:30.812Z,63.7
2016-05-29T04:24:39.939Z,63.7
2016-05-29T04:25:30.676Z,63.22
2016-05-29T04:26:33.491Z,63.42
2016-05-29T04:27:30.573Z,63.12
2016-05-29T04:28:30.591Z,62.93
2016-05-29T04:29:40.124Z,62.84
2016-05-29T04:30:33.439Z,62.84
2016-05-29T04:31:33.255Z,62.84
2016-05-29T04:32:30.352Z,62.65
2016-05-29T04:33:33.307Z,62.84
2016-05-29T04:34:42.280Z,63.22
2016-05-29T04:35:30.422Z,62.45
2016-05-29T04:36:33.269Z,62.07
2016-05-29T04:37:30.115Z,62.74
2016-05-29T04:38:30.085Z,62.48
2016-05-29T04:39:29.918Z,62.19
2016-05-29T04:40:29.810Z,62.01
2016-05-29T04:41:29.923Z,61.91
2016-05-29T04:42:29.893Z,62.1
2016-05-29T04:43:30.054Z,61.62
2016-05-29T04:44:29.806Z,61.52
2016-05-29T04:45:29.761Z,61.72
2016-05-29T04:46:29.702Z,61.81
2016-05-29T04:47:32.673Z,61.62
2016-05-29T04:48:29.629Z,61.33
2016-05-29T04:49:29.773Z,60.95
2016-05-29T04:50:30.243Z,61.33
2016-05-29T04:51:29.684Z,60.85
2016-05-29T04:52:29.436Z,60.95
2016-05-29T04:53:29.423Z,61.14
2016-05-29T04:54:29.333Z,60.75
2016-05-29T04:55:29.601Z,60.85
2016-05-29T04:56:29.103Z,61.14
2016-05-29T04:57:29.200Z,61.05
2016-05-29T04:58:29.172Z,60.5
2016-05-29T04:59:29.111Z,60.78
2016-05-29T05:00:29.083Z,60.6
2016-05-29T05:01:29.023Z,60.5
2016-05-29T05:02:28.808Z,60.69
2016-05-29T05:03:28.935Z,60.88
2016-05-29T05:04:28.875Z,60.4
2016-05-29T05:05:28.690Z,60.69
2016-05-29T05:06:28.630Z,61.08
2016-05-29T05:07:28.758Z,60.78
2016-05-29T05:08:28.698Z,60.69
2016-05-29T05:09:31.655Z,60.88
2016-05-29T05:10:28.626Z,60.88
2016-05-29T05:11:28.566Z,61.08
2016-05-29T05:12:28.521Z,60.98
2016-05-29T05:13:28.337Z,60.88
2016-05-29T05:14:28.449Z,60.6
2016-05-29T05:15:28.373Z,60.69
2016-05-29T05:16:28.346Z,60.69
2016-05-29T05:17:28.285Z,60.6
2016-05-29T05:18:28.085Z,60.78
2016-05-29T05:19:28.212Z,60.78
2016-05-29T05:20:28.402Z,60.78
2016-05-29T05:21:28.765Z,60.69
2016-05-29T05:22:27.908Z,60.5
2016-05-29T05:23:28.036Z,60.5
2016-05-29T05:24:27.975Z,60.14
2016-05-29T05:25:27.932Z,60.4
2016-05-29T05:26:27.934Z,60.11
2016-05-29T05:27:27.874Z,60.14
2016-05-29T05:28:27.800Z,60.24
2016-05-29T05:29:27.755Z,60.53
2016-05-29T05:30:33.726Z,60.72
2016-05-29T05:31:27.650Z,60.72
2016-05-29T05:32:27.481Z,59.95
2016-05-29T05:33:27.563Z,59.76
2016-05-29T05:34:27.533Z,60.24
2016-05-29T05:35:27.864Z,59.99
2016-05-29T05:36:27.446Z,60.14
2016-05-29T05:37:27.261Z,60.17
2016-05-29T05:38:27.247Z,59.57
2016-05-29T05:39:27.407Z,59.6
2016-05-29T05:40:27.347Z,60.08
2016-05-29T05:41:27.318Z,60.08
2016-05-29T05:42:27.165Z,59.69
2016-05-29T05:43:27.135Z,59.5
2016-05-29T05:44:27.076Z,59.22
2016-05-29T05:45:27.016Z,59.22
2016-05-29T05:46:27.019Z,59.31
2016-05-29T05:47:26.943Z,58.67
2016-05-29T05:48:27.103Z,58.67
2016-05-29T05:49:35.871Z,58.57
2016-05-29T05:50:27.358Z,58.28
2016-05-29T05:51:26.815Z,58.67
2016-05-29T05:52:26.567Z,58.28
2016-05-29T05:53:26.662Z,58.09
2016-05-29T05:54:26.557Z,57.42
2016-05-29T05:55:26.575Z,57.64
2016-05-29T05:56:26.545Z,57.64
2016-05-29T05:57:26.533Z,57.42
2016-05-29T05:58:26.505Z,57.54
2016-05-29T05:59:29.617Z,57.15
2016-05-29T06:00:26.338Z,57.06
2016-05-29T06:01:29.169Z,57.25
2016-05-29T06:02:26.265Z,57.06
2016-05-29T06:03:26.237Z,56.67
2016-05-29T06:04:29.036Z,56.87
2016-05-29T06:05:30.055Z,57.15
2016-05-29T06:06:25.947Z,56.58
2016-05-29T06:07:26.358Z,56.6
2016-05-29T06:08:26.016Z,56.7
2016-05-29T06:09:26.143Z,56.51
2016-05-29T06:10:26.130Z,56.32
2016-05-29T06:11:26.071Z,56.12
2016-05-29T06:12:25.668Z,56.22
2016-05-29T06:13:25.638Z,56.22
2016-05-29T06:14:25.735Z,56.32
2016-05-29T06:15:25.691Z,56.12
2016-05-29T06:16:25.631Z,55.93
2016-05-29T06:17:25.602Z,55.74
2016-05-29T06:18:25.559Z,55.93
2016-05-29T06:19:25.358Z,55.55
2016-05-29T06:20:25.314Z,55.74
2016-05-29T06:21:25.442Z,55.45
2016-05-29T06:22:25.381Z,55.07
2016-05-29T06:23:25.353Z,55.09
2016-05-29T06:24:25.496Z,54.71
2016-05-29T06:25:25.092Z,54.32
2016-05-29T06:26:25.048Z,53.65
2016-05-29T06:27:25.176Z,53.65
2016-05-29T06:28:25.148Z,53.74
2016-05-29T06:29:25.275Z,53.27
2016-05-29T06:30:25.044Z,53.45
2016-05-29T06:31:24.984Z,53.17
2016-05-29T06:32:24.956Z,52.97
2016-05-29T06:33:27.911Z,53.07
2016-05-29T06:34:25.163Z,52.78
2016-05-29T06:35:33.839Z,52.59
2016-05-29T06:36:24.622Z,52.69
2016-05-29T06:37:24.719Z,52.66
2016-05-29T06:38:27.674Z,52.66
2016-05-29T06:39:24.631Z,52.47
2016-05-29T06:40:24.680Z,52.56
2016-05-29T06:41:24.495Z,52.47
2016-05-29T06:42:24.530Z,52.85
2016-05-29T06:43:24.735Z,52.56
2016-05-29T06:44:30.253Z,53.14
2016-05-29T06:45:24.771Z,53.23
2016-05-29T06:46:27.369Z,53.05
2016-05-29T06:47:27.512Z,52.85
2016-05-29T06:48:24.217Z,52.92
2016-05-29T06:49:24.188Z,53.31
2016-05-29T06:50:24.144Z,53.31
2016-05-29T06:51:24.304Z,53.11
2016-05-29T06:52:27.353Z,53.14
2016-05-29T06:53:24.012Z,53.4
2016-05-29T06:54:23.984Z,53.31
2016-05-29T06:55:23.940Z,53.21
2016-05-29T06:56:24.098Z,53.4
2016-05-29T06:57:26.850Z,53.43
2016-05-29T06:58:23.635Z,53.59
2016-05-29T06:59:23.747Z,53.14
2016-05-29T07:00:23.718Z,53.33
2016-05-29T07:01:23.658Z,53.33
2016-05-29T07:02:23.614Z,53.62
2016-05-29T07:03:23.414Z,53.53
2016-05-29T07:04:23.557Z,53.91
2016-05-29T07:05:27.153Z,53.62
2016-05-29T07:06:27.063Z,54.39
2016-05-29T07:07:26.394Z,54.1
2016-05-29T07:08:23.552Z,54.3
2016-05-29T07:09:23.305Z,54.68
2016-05-29T07:10:23.261Z,55.26
2016-05-29T07:11:26.232Z,55.26
2016-05-29T07:12:23.375Z,55.16
2016-05-29T07:13:23.128Z,55.55
2016-05-29T07:14:23.084Z,55.45
2016-05-29T07:15:23.040Z,55.35
2016-05-29T07:16:22.996Z,55.65
2016-05-29T07:17:22.951Z,55.93
2016-05-29T07:18:25.923Z,56.32
2016-05-29T07:19:22.879Z,56.7
2016-05-29T07:20:25.835Z,56.8
2016-05-29T07:21:22.774Z,57.28
2016-05-29T07:22:25.746Z,56.99
2016-05-29T07:23:22.561Z,57.37
2016-05-29T07:24:22.657Z,58.15
2016-05-29T07:25:25.801Z,57.95
2016-05-29T07:26:22.554Z,58.24
2016-05-29T07:27:22.509Z,58.34
2016-05-29T07:28:25.668Z,58.15
2016-05-29T07:29:22.421Z,58.24
2016-05-29T07:30:22.392Z,58.17
2016-05-29T07:31:22.348Z,58.34
2016-05-29T07:32:25.304Z,58.27
2016-05-29T07:33:25.260Z,58.56
2016-05-29T07:34:22.201Z,58.37
2016-05-29T07:35:22.469Z,58.17
2016-05-29T07:36:22.144Z,58.27
2016-05-29T07:37:25.099Z,58.37
2016-05-29T07:38:22.023Z,58.47
2016-05-29T07:39:21.980Z,58.17
2016-05-29T07:40:21.950Z,58.17
2016-05-29T07:41:22.094Z,58.08
2016-05-29T07:42:21.846Z,58.47
2016-05-29T07:43:21.647Z,58.37
2016-05-29T07:44:21.758Z,58.37
2016-05-29T07:45:21.713Z,58.17
2016-05-29T07:46:21.686Z,58.27
2016-05-29T07:47:21.626Z,58.27
2016-05-29T07:48:21.613Z,57.98
2016-05-29T07:49:24.553Z,58.11
2016-05-29T07:50:21.587Z,57.53
2016-05-29T07:51:21.309Z,57.24
2016-05-29T07:52:24.248Z,57.24
2016-05-29T07:53:21.360Z,57.24
2016-05-29T07:54:21.176Z,57.34
2016-05-29T07:55:21.288Z,57.34
2016-05-29T07:56:21.259Z,57.34
2016-05-29T07:57:21.200Z,57.21
2016-05-29T07:58:20.999Z,57.89
2016-05-29T07:59:21.095Z,57.69
2016-05-29T08:00:21.067Z,57.98
2016-05-29T08:01:21.007Z,57.89
2016-05-29T08:02:20.964Z,57.89
2016-05-29T08:03:20.950Z,57.69
2016-05-29T08:04:20.749Z,57.5
2016-05-29T08:05:20.736Z,57.31
2016-05-29T08:06:20.802Z,57.21
2016-05-29T08:07:23.758Z,57.14
2016-05-29T08:08:20.713Z,57.34
2016-05-29T08:09:20.872Z,56.85
2016-05-29T08:10:23.625Z,56.85
2016-05-29T08:11:20.425Z,56.27
2016-05-29T08:12:20.521Z,56.57
2016-05-29T08:13:20.493Z,56.47
2016-05-29T08:14:20.291Z,56.37
2016-05-29T08:15:20.405Z,56.37
2016-05-29T08:16:20.422Z,56.18
2016-05-29T08:17:20.518Z,56.18
2016-05-29T08:18:20.288Z,55.89
2016-05-29T08:19:20.243Z,55.99
2016-05-29T08:20:20.183Z,55.51
2016-05-29T08:21:20.779Z,55.82
2016-05-29T08:22:23.111Z,55.41
2016-05-29T08:23:20.051Z,55.15
2016-05-29T08:24:23.023Z,55.34
2016-05-29T08:25:19.962Z,55.15
2016-05-29T08:26:19.934Z,54.47
2016-05-29T08:27:19.896Z,54.86
2016-05-29T08:28:22.734Z,54.38
2016-05-29T08:29:19.868Z,54.18
2016-05-29T08:30:19.845Z,54.38
2016-05-29T08:31:19.824Z,53.8
2016-05-29T08:32:22.819Z,53.92
2016-05-29T08:33:19.736Z,53.73
2016-05-29T08:34:19.544Z,53.25
2016-05-29T08:35:19.680Z,53.25
2016-05-29T08:36:19.644Z,53.34
2016-05-29T08:37:19.618Z,53.25
2016-05-29T08:38:19.593Z,52.57
2016-05-29T08:39:19.364Z,52.57
2016-05-29T08:40:19.339Z,52.47
2016-05-29T08:41:19.469Z,52.28
2016-05-29T08:42:19.395Z,52.47
2016-05-29T08:43:19.398Z,52.19
2016-05-29T08:44:19.324Z,52.28
2016-05-29T08:45:19.311Z,52.67
2016-05-29T08:46:19.236Z,52.09
2016-05-29T08:47:22.505Z,51.99
2016-05-29T08:48:19.180Z,52.19
2016-05-29T08:49:22.105Z,52.28
2016-05-29T08:50:19.061Z,52.19
2016-05-29T08:51:22.268Z,51.51
2016-05-29T08:52:19.677Z,51.53
2016-05-29T08:53:19.211Z,50.86
2016-05-29T08:54:18.870Z,51.05
2016-05-29T08:55:18.843Z,50.09
2016-05-29T08:56:18.814Z,49.73
2016-05-29T08:57:21.801Z,49.82
2016-05-29T08:58:19.304Z,49.34
2016-05-29T08:59:18.681Z,48.95
2016-05-29T09:00:18.481Z,49.44
2016-05-29T09:01:18.593Z,49.24
2016-05-29T09:02:18.534Z,48.66
2016-05-29T09:03:18.661Z,48.47
2016-05-29T09:04:18.461Z,47.72
2016-05-29T09:05:18.432Z,47.43
2016-05-29T09:06:18.419Z,47.24
2016-05-29T09:07:21.328Z,47.14
2016-05-29T09:08:21.284Z,46.75
2016-05-29T09:09:18.255Z,47.05
2016-05-29T09:10:18.211Z,46.75
2016-05-29T09:11:17.994Z,46.56
2016-05-29T09:12:18.123Z,46.37
2016-05-29T09:13:18.079Z,46.27
2016-05-29T09:14:18.035Z,45.89
2016-05-29T09:15:18.193Z,45.89
2016-05-29T09:16:20.962Z,45.89
2016-05-29T09:17:17.902Z,45.69
2016-05-29T09:18:19.842Z,45.89
2016-05-29T09:19:17.813Z,45.69
2016-05-29T09:20:17.785Z,45.69
2016-05-29T09:21:17.569Z,45.69
2016-05-29T09:22:20.712Z,45.5
2016-05-29T09:23:17.840Z,46.08
2016-05-29T09:24:17.437Z,45.89
2016-05-29T09:25:20.579Z,45.89
2016-05-29T09:26:17.535Z,46.54
2016-05-29T09:27:17.492Z,46.37
2016-05-29T09:28:17.431Z,45.96
2016-05-29T09:29:17.403Z,46.15
2016-05-29T09:30:17.359Z,46.25
2016-05-29T09:31:17.298Z,46.37
2016-05-29T09:32:17.270Z,45.79
2016-05-29T09:33:17.211Z,45.89
2016-05-29T09:34:17.167Z,45.98
2016-05-29T09:35:20.153Z,45.79
2016-05-29T09:36:17.094Z,46.37
2016-05-29T09:37:17.050Z,46.37
2016-05-29T09:38:20.005Z,46.27
2016-05-29T09:39:23.008Z,46.56
2016-05-29T09:40:16.916Z,46.47
2016-05-29T09:41:16.888Z,46.47
2016-05-29T09:42:16.828Z,46.47
2016-05-29T09:43:17.003Z,46.75
2016-05-29T09:44:16.787Z,46.95
2016-05-29T09:45:16.711Z,46.95
2016-05-29T09:46:16.683Z,46.66
2016-05-29T09:47:16.624Z,46.75
2016-05-29T09:48:18.641Z,46.56
2016-05-29T09:49:19.379Z,47.05
2016-05-29T09:50:16.507Z,47.05
2016-05-29T09:51:16.649Z,46.95
2016-05-29T09:52:16.605Z,46.95
2016-05-29T09:53:16.357Z,46.95
2016-05-29T09:54:16.330Z,46.95
2016-05-29T09:55:16.145Z,46.75
2016-05-29T09:56:16.241Z,46.85
2016-05-29T09:57:16.197Z,47.05
2016-05-29T09:58:19.168Z,46.92
2016-05-29T09:59:19.109Z,47.31
2016-05-29T10:00:16.080Z,47.12
2016-05-29T10:01:16.037Z,47.02
2016-05-29T10:02:15.976Z,46.83
2016-05-29T10:03:15.948Z,46.92
2016-05-29T10:04:18.903Z,46.92
2016-05-29T10:05:15.858Z,46.73
2016-05-29T10:06:16.112Z,46.75
2016-05-29T10:07:15.770Z,46.66
2016-05-29T10:08:15.742Z,46.66
2016-05-29T10:09:15.697Z,46.56
2016-05-29T10:10:18.686Z,46.85
2016-05-29T10:11:15.594Z,46.66
2016-05-29T10:12:15.550Z,46.95
2016-05-29T10:13:15.365Z,46.95
2016-05-29T10:14:15.477Z,46.95
2016-05-29T10:15:15.417Z,46.75
2016-05-29T10:16:15.404Z,46.95
2016-05-29T10:17:15.360Z,47.14
2016-05-29T10:18:16.378Z,46.85
2016-05-29T10:19:15.257Z,46.95
2016-05-29T10:20:15.212Z,47.24
2016-05-29T10:21:15.168Z,47.89
2016-05-29T10:22:15.467Z,47.7
2016-05-29T10:23:15.283Z,47.8
2016-05-29T10:24:15.254Z,47.89
2016-05-29T10:25:15.006Z,48.08
2016-05-29T10:26:17.979Z,48.47
2016-05-29T10:27:14.918Z,48.57
2016-05-29T10:28:14.874Z,49.05
2016-05-29T10:29:17.845Z,48.95
2016-05-29T10:30:14.801Z,49.24
2016-05-29T10:31:17.757Z,49.63
2016-05-29T10:32:14.916Z,49.34
2016-05-29T10:33:14.669Z,49.34
2016-05-29T10:34:17.640Z,49.05
2016-05-29T10:35:14.784Z,49.63
2016-05-29T10:36:17.552Z,49.82
2016-05-29T10:37:14.351Z,49.63
2016-05-29T10:38:17.307Z,50.18
2016-05-29T10:39:14.403Z,49.99
2016-05-29T10:40:14.375Z,50.47
2016-05-29T10:41:17.550Z,50.76
2016-05-29T10:42:14.286Z,50.67
2016-05-29T10:43:14.289Z,51.15
2016-05-29T10:44:14.199Z,51.25
2016-05-29T10:45:14.154Z,51.05
2016-05-29T10:46:13.969Z,51.25
2016-05-29T10:47:14.066Z,51.34
2016-05-29T10:48:14.038Z,51.15
2016-05-29T10:49:14.040Z,50.86
2016-05-29T10:50:13.949Z,51.25
2016-05-29T10:51:13.764Z,51.15
2016-05-29T10:52:13.845Z,51.7
2016-05-29T10:53:14.129Z,51.7
2016-05-29T10:54:13.772Z,51.89
2016-05-29T10:55:13.728Z,51.89
2016-05-29T10:56:13.871Z,52.19
2016-05-29T10:57:13.484Z,52.19
2016-05-29T10:58:13.595Z,51.89
2016-05-29T10:59:13.567Z,52.57
2016-05-29T11:00:25.554Z,52.37
2016-05-29T11:01:16.479Z,52.45
2016-05-29T11:02:16.622Z,52.67
2016-05-29T11:03:13.390Z,52.28
2016-05-29T11:04:16.346Z,52.55
2016-05-29T11:05:16.317Z,52.57
2016-05-29T11:06:16.914Z,53.22
2016-05-29T11:07:13.417Z,53.15
2016-05-29T11:08:13.372Z,53.31
2016-05-29T11:09:16.328Z,53.51
2016-05-29T11:10:21.972Z,53.31
2016-05-29T11:11:13.036Z,53.61
2016-05-29T11:12:19.024Z,53.89
2016-05-29T11:13:18.823Z,53.89
2016-05-29T11:14:15.935Z,54.38
2016-05-29T11:15:12.922Z,54.28
2016-05-29T11:16:15.862Z,54.28
2016-05-29T11:17:18.802Z,54.86
2016-05-29T11:18:12.586Z,54.57
2016-05-29T11:19:12.683Z,54.66
2016-05-29T11:20:12.638Z,54.76
2016-05-29T11:21:12.610Z,54.66
2016-05-29T11:22:12.582Z,54.76
2016-05-29T11:23:12.569Z,54.66
2016-05-29T11:24:15.477Z,54.66
2016-05-29T11:25:12.434Z,54.57
2016-05-29T11:26:12.404Z,54.47
2016-05-29T11:27:12.346Z,54.66
2016-05-29T11:28:12.301Z,54.86
2016-05-29T11:29:12.256Z,54.57
2016-05-29T11:30:12.229Z,54.96
2016-05-29T11:31:12.246Z,54.47
2016-05-29T11:32:12.140Z,54.09
2016-05-29T11:33:12.080Z,54.31
2016-05-29T11:34:15.254Z,54.6
2016-05-29T11:35:11.992Z,54.5
2016-05-29T11:36:12.682Z,53.83
2016-05-29T11:37:11.903Z,53.73
2016-05-29T11:38:14.875Z,53.83
2016-05-29T11:39:11.814Z,53.73
2016-05-29T11:40:11.787Z,53.92
2016-05-29T11:41:11.742Z,53.92
2016-05-29T11:42:11.683Z,53.25
2016-05-29T11:43:11.841Z,53.15
2016-05-29T11:44:11.610Z,53.27
2016-05-29T11:45:11.566Z,52.86
2016-05-29T11:46:11.536Z,52.76
2016-05-29T11:47:11.477Z,52.59
2016-05-29T11:48:11.433Z,52.5
2016-05-29T11:49:11.419Z,52.5
2016-05-29T11:50:11.360Z,52.4
2016-05-29T11:51:11.519Z,52.31
2016-05-29T11:52:11.271Z,52.21
2016-05-29T11:53:17.446Z,52.31
2016-05-29T11:54:14.183Z,51.92
2016-05-29T11:55:14.124Z,51.65
2016-05-29T11:56:11.095Z,51.65
2016-05-29T11:57:11.051Z,51.17
2016-05-29T11:58:11.054Z,51.17
2016-05-29T11:59:11.181Z,51.37
2016-05-29T12:00:13.918Z,51.17
2016-05-29T12:01:13.874Z,51.85
2016-05-29T12:02:17.079Z,51.46
2016-05-29T12:03:13.801Z,51.46
2016-05-29T12:04:10.742Z,51.46
2016-05-29T12:05:13.698Z,51.46
2016-05-29T12:06:10.669Z,51.63
2016-05-29T12:07:10.843Z,52.31
2016-05-29T12:08:10.581Z,52.11
2016-05-29T12:09:10.552Z,52.4
2016-05-29T12:10:10.492Z,52.4
2016-05-29T12:11:13.308Z,52.5
2016-05-29T12:12:10.403Z,52.4
2016-05-29T12:13:10.453Z,52.69
2016-05-29T12:14:10.159Z,52.69
2016-05-29T12:15:13.287Z,52.59
2016-05-29T12:16:10.649Z,52.79
2016-05-29T12:17:10.386Z,53.47
2016-05-29T12:18:09.982Z,53.17
2016-05-29T12:19:10.110Z,52.98
2016-05-29T12:20:10.066Z,53.47
2016-05-29T12:21:10.428Z,53.27
2016-05-29T12:22:12.993Z,53.66
2016-05-29T12:23:09.949Z,53.27
2016-05-29T12:24:09.904Z,53.85
2016-05-29T12:25:09.846Z,53.85
2016-05-29T12:26:09.816Z,54.33
2016-05-29T12:27:09.771Z,54.43
2016-05-29T12:28:09.712Z,54.91
2016-05-29T12:29:09.668Z,55.2
2016-05-29T12:30:09.640Z,55.27
2016-05-29T12:31:12.596Z,55.46
2016-05-29T12:32:09.754Z,56.14
2016-05-29T12:33:09.506Z,56.62
2016-05-29T12:34:09.494Z,57.1
2016-05-29T12:35:12.451Z,58.36
2016-05-29T12:36:10.125Z,59.1
2016-05-29T12:37:12.534Z,60.55
2016-05-29T12:38:09.505Z,61.32
2016-05-29T12:39:09.258Z,61.9
2016-05-29T12:40:15.228Z,62.63
2016-05-29T12:41:09.170Z,62.54
2016-05-29T12:42:09.172Z,63.6
2016-05-29T12:43:09.096Z,63.89
2016-05-29T12:44:18.067Z,64.34
2016-05-29T12:45:09.195Z,64.05
2016-05-29T12:46:08.948Z,64.34
2016-05-29T12:47:14.904Z,64.73
2016-05-29T12:48:08.860Z,64.92
2016-05-29T12:49:08.800Z,64.63
2016-05-29T12:50:11.772Z,64.92
2016-05-29T12:51:09.086Z,64.82
2016-05-29T12:52:08.683Z,65.2
2016-05-29T12:53:08.701Z,65.3
2016-05-29T12:54:11.595Z,65.01
2016-05-29T12:55:08.769Z,65.98